Time;durP1;ratioP1;P1;durP2;ratioP2;P2;SDS_P1;SDS_P2;PMS_P1;PMS_P2;Temp;Humidity;BMP_temperature;BMP_pressure;BME280_temperature;BME280_humidity;BME280_pressure;Samples;Min_cycle;Max_cycle;Signal;HPM_P1;HPM_P2
2024/01/26 00:01:29;;;;;;;31.90;15.87;;;;;;;;;;5005313;28;20096;-61
2024/01/26 00:03:54;;;;;;;32.00;16.00;;;;;;;;;;4996865;28;20493;-61
2024/01/26 00:06:19;;;;;;;34.93;16.07;;;;;;;;;;5004057;28;20037;-62
2024/01/26 00:08:44;;;;;;;31.33;16.27;;;;;;;;;;5015878;28;20030;-62
2024/01/26 00:11:14;;;;;;;32.30;15.03;;;;;;;;;;5011297;28;20035;-64
2024/01/26 00:13:39;;;;;;;29.90;14.50;;;;;;;;;;4998117;28;20045;-62
2024/01/26 00:16:04;;;;;;;31.27;15.80;;;;;;;;;;5001181;28;20030;-61
2024/01/26 00:18:29;;;;;;;30.77;15.25;;;;;;;;;;5002636;28;20026;-62
2024/01/26 00:20:54;;;;;;;29.27;14.90;;;;;;;;;;4995532;28;20025;-60
2024/01/26 00:23:19;;;;;;;27.87;13.93;;;;;;;;;;5001784;28;20442;-60
2024/01/26 00:25:45;;;;;;;29.53;14.70;;;;;;;;;;4993927;28;20022;-61
2024/01/26 00:28:11;;;;;;;29.90;14.57;;;;;;;;;;5004926;28;20440;-61
2024/01/26 00:30:36;;;;;;;28.40;14.73;;;;;;;;;;4994271;28;20054;-60
2024/01/26 00:33:01;;;;;;;30.83;14.53;;;;;;;;;;5002214;28;20521;-61
2024/01/26 00:35:26;;;;;;;27.43;13.37;;;;;;;;;;4995577;28;20021;-61
2024/01/26 00:37:51;;;;;;;28.58;13.55;;;;;;;;;;4998029;28;20447;-60
2024/01/26 00:40:17;;;;;;;29.27;14.23;;;;;;;;;;5003864;28;20017;-61
2024/01/26 00:42:42;;;;;;;28.55;14.45;;;;;;;;;;5008857;28;20193;-62
2024/01/26 00:45:07;;;;;;;28.83;14.33;;;;;;;;;;5001918;28;20022;-61
2024/01/26 00:47:33;;;;;;;26.88;13.52;;;;;;;;;;4995728;28;20470;-61
2024/01/26 00:49:58;;;;;;;27.92;14.13;;;;;;;;;;4998511;28;20385;-62
2024/01/26 00:52:23;;;;;;;28.92;14.50;;;;;;;;;;5005957;28;20085;-60
2024/01/26 00:54:49;;;;;;;27.50;13.77;;;;;;;;;;5007235;28;20463;-61
2024/01/26 00:57:14;;;;;;;26.90;13.33;;;;;;;;;;5003875;28;20163;-61
2024/01/26 00:59:39;;;;;;;27.30;13.17;;;;;;;;;;5009480;28;20496;-62
2024/01/26 01:02:04;;;;;;;27.60;13.13;;;;;;;;;;5003312;28;20022;-61
2024/01/26 01:04:30;;;;;;;24.93;12.23;;;;;;;;;;4992268;28;20466;-61
2024/01/26 01:06:56;;;;;;;27.20;13.85;;;;;;;;;;5001774;28;20106;-61
2024/01/26 01:09:21;;;;;;;26.85;13.00;;;;;;;;;;4994838;28;20157;-61
2024/01/26 01:11:46;;;;;;;26.77;13.10;;;;;;;;;;4998709;28;20048;-61
2024/01/26 01:14:12;;;;;;;26.13;12.00;;;;;;;;;;5003966;28;20425;-60
2024/01/26 01:16:39;;;;;;;25.52;11.80;;;;;;;;;;5007895;28;20049;-61
2024/01/26 01:19:05;;;;;;;26.58;12.65;;;;;;;;;;5000896;28;20022;-61
2024/01/26 01:21:30;;;;;;;26.13;12.80;;;;;;;;;;4992164;28;20065;-60
2024/01/26 01:23:55;;;;;;;25.60;11.40;;;;;;;;;;5001653;28;20455;-61
2024/01/26 01:26:21;;;;;;;25.53;11.30;;;;;;;;;;5000929;28;20031;-60
2024/01/26 01:28:46;;;;;;;24.40;11.17;;;;;;;;;;5001044;28;20281;-60
2024/01/26 01:31:11;;;;;;;24.53;11.10;;;;;;;;;;4995114;28;20421;-62
2024/01/26 01:33:36;;;;;;;24.20;11.07;;;;;;;;;;4995730;28;20285;-61
2024/01/26 01:36:01;;;;;;;23.37;10.10;;;;;;;;;;5000619;28;20023;-61
2024/01/26 01:38:27;;;;;;;23.25;10.07;;;;;;;;;;4995013;28;20277;-61
2024/01/26 01:40:52;;;;;;;23.37;10.03;;;;;;;;;;5002092;28;20032;-60
2024/01/26 01:43:20;;;;;;;22.57;9.87;;;;;;;;;;5011211;28;20025;-61
2024/01/26 01:45:45;;;;;;;23.65;9.40;;;;;;;;;;5003906;28;20118;-61
2024/01/26 01:48:11;;;;;;;22.52;9.57;;;;;;;;;;4991636;28;20137;-61
2024/01/26 01:50:36;;;;;;;21.85;8.85;;;;;;;;;;4999506;28;20140;-60
2024/01/26 01:53:03;;;;;;;24.67;10.02;;;;;;;;;;4996565;28;20077;-60
2024/01/26 01:55:29;;;;;;;22.50;9.20;;;;;;;;;;4995123;28;20033;-60
2024/01/26 01:57:55;;;;;;;23.05;8.85;;;;;;;;;;5000407;28;20027;-59
2024/01/26 02:00:20;;;;;;;22.40;8.68;;;;;;;;;;4993711;28;20019;-59
2024/01/26 02:02:46;;;;;;;20.95;8.48;;;;;;;;;;4998173;28;20446;-60
2024/01/26 02:05:12;;;;;;;20.80;8.50;;;;;;;;;;5011225;28;20394;-59
2024/01/26 02:07:37;;;;;;;21.73;8.40;;;;;;;;;;5002455;28;20032;-60
2024/01/26 02:10:04;;;;;;;20.13;8.00;;;;;;;;;;4991986;28;20331;-60
2024/01/26 02:12:29;;;;;;;20.83;8.00;;;;;;;;;;4996155;28;20356;-59
2024/01/26 02:14:54;;;;;;;21.17;7.83;;;;;;;;;;4996674;28;20122;-60
2024/01/26 02:17:19;;;;;;;22.07;9.27;;;;;;;;;;4994395;28;20375;-59
2024/01/26 02:19:44;;;;;;;21.60;7.80;;;;;;;;;;4999494;28;20489;-60
2024/01/26 02:22:10;;;;;;;21.10;8.13;;;;;;;;;;4992619;28;20791;-60
2024/01/26 02:24:35;;;;;;;20.10;7.57;;;;;;;;;;5001995;28;20105;-60
2024/01/26 02:27:00;;;;;;;19.77;7.47;;;;;;;;;;4991288;28;20530;-59
2024/01/26 02:29:25;;;;;;;21.27;7.83;;;;;;;;;;5001297;28;20063;-61
2024/01/26 02:31:50;;;;;;;20.83;6.77;;;;;;;;;;4993239;28;20276;-61
2024/01/26 02:34:15;;;;;;;20.40;6.87;;;;;;;;;;4995603;28;20284;-61
2024/01/26 02:36:41;;;;;;;18.33;5.90;;;;;;;;;;4997991;28;20047;-61
2024/01/26 02:39:06;;;;;;;18.23;6.23;;;;;;;;;;4994949;28;20292;-61
2024/01/26 02:41:34;;;;;;;16.77;5.85;;;;;;;;;;4999542;28;20403;-61
2024/01/26 02:44:01;;;;;;;19.55;6.10;;;;;;;;;;4991143;28;20038;-61
2024/01/26 02:46:26;;;;;;;18.55;5.88;;;;;;;;;;4998690;28;20478;-61
2024/01/26 02:48:51;;;;;;;18.63;5.80;;;;;;;;;;5010475;28;20022;-62
2024/01/26 02:51:17;;;;;;;17.43;5.60;;;;;;;;;;4996537;28;20053;-60
2024/01/26 02:53:42;;;;;;;18.73;5.70;;;;;;;;;;5007808;28;20069;-61
2024/01/26 02:56:07;;;;;;;17.93;5.73;;;;;;;;;;5002725;28;20034;-61
2024/01/26 02:58:33;;;;;;;17.13;5.10;;;;;;;;;;4999602;28;20101;-62
2024/01/26 03:00:58;;;;;;;17.48;5.45;;;;;;;;;;4993634;28;20120;-62
2024/01/26 03:03:23;;;;;;;16.43;5.20;;;;;;;;;;4999640;28;20032;-62
2024/01/26 03:05:48;;;;;;;19.67;5.45;;;;;;;;;;4990918;28;20494;-61
2024/01/26 03:08:14;;;;;;;18.92;6.18;;;;;;;;;;4997031;28;20437;-62
2024/01/26 03:10:39;;;;;;;18.80;6.17;;;;;;;;;;5010453;28;20038;-61
2024/01/26 03:13:04;;;;;;;18.77;5.27;;;;;;;;;;5002722;28;20029;-61
2024/01/26 03:15:29;;;;;;;18.17;5.43;;;;;;;;;;4995241;28;20038;-62
2024/01/26 03:17:54;;;;;;;15.97;5.43;;;;;;;;;;4995658;28;20044;-61
2024/01/26 03:20:19;;;;;;;17.10;5.20;;;;;;;;;;5000836;28;20363;-61
2024/01/26 03:22:45;;;;;;;17.25;5.20;;;;;;;;;;5006518;28;20019;-60
2024/01/26 03:25:10;;;;;;;17.20;5.47;;;;;;;;;;4996762;28;20034;-61
2024/01/26 03:27:35;;;;;;;17.92;5.80;;;;;;;;;;4999264;28;20018;-61
2024/01/26 03:30:01;;;;;;;16.85;5.35;;;;;;;;;;5002496;28;20018;-61
2024/01/26 03:32:26;;;;;;;17.27;5.10;;;;;;;;;;4991586;28;20030;-62
2024/01/26 03:34:51;;;;;;;17.73;5.33;;;;;;;;;;4991656;28;20026;-62
2024/01/26 03:37:17;;;;;;;16.50;5.10;;;;;;;;;;5003199;28;20484;-62
2024/01/26 03:39:42;;;;;;;17.23;5.43;;;;;;;;;;5006207;28;20025;-63
2024/01/26 03:42:10;;;;;;;16.73;5.03;;;;;;;;;;4999061;28;20039;-62
2024/01/26 03:44:36;;;;;;;17.05;5.55;;;;;;;;;;4991591;28;20022;-62
2024/01/26 03:47:01;;;;;;;17.15;5.53;;;;;;;;;;4998236;28;20025;-62
2024/01/26 03:49:26;;;;;;;18.10;5.30;;;;;;;;;;5009239;28;20240;-63
2024/01/26 03:51:51;;;;;;;17.00;5.83;;;;;;;;;;5001789;28;20045;-63
2024/01/26 03:54:16;;;;;;;16.63;4.85;;;;;;;;;;4994002;28;20465;-63
2024/01/26 03:56:42;;;;;;;19.17;5.57;;;;;;;;;;4997341;28;20056;-63
2024/01/26 03:59:07;;;;;;;17.67;5.20;;;;;;;;;;5001717;28;20026;-62
2024/01/26 04:01:32;;;;;;;17.67;5.13;;;;;;;;;;4997303;28;20026;-63
2024/01/26 04:03:57;;;;;;;19.87;5.87;;;;;;;;;;5002275;28;20285;-62
2024/01/26 04:06:23;;;;;;;18.42;5.68;;;;;;;;;;4993884;28;20018;-63
2024/01/26 04:08:48;;;;;;;16.80;5.38;;;;;;;;;;5005011;28;20037;-63
2024/01/26 04:11:13;;;;;;;16.23;5.00;;;;;;;;;;4993288;28;20121;-63
2024/01/26 04:13:38;;;;;;;17.53;5.80;;;;;;;;;;5002091;28;20288;-63
2024/01/26 04:16:05;;;;;;;18.13;5.57;;;;;;;;;;4997519;28;20444;-63
2024/01/26 04:18:31;;;;;;;19.50;6.10;;;;;;;;;;4997007;28;20054;-61
2024/01/26 04:20:56;;;;;;;18.67;6.20;;;;;;;;;;5001242;28;20061;-61
2024/01/26 04:23:21;;;;;;;17.63;5.50;;;;;;;;;;4994732;28;20313;-59
2024/01/26 04:25:46;;;;;;;18.90;6.53;;;;;;;;;;5002923;28;20483;-62
2024/01/26 04:28:11;;;;;;;21.13;6.87;;;;;;;;;;4993070;28;20014;-61
2024/01/26 04:30:39;;;;;;;19.38;6.53;;;;;;;;;;5004972;28;20371;-61
2024/01/26 04:33:06;;;;;;;18.92;6.65;;;;;;;;;;4992481;28;20042;-61
2024/01/26 04:35:31;;;;;;;20.08;7.03;;;;;;;;;;5003043;28;20040;-59
2024/01/26 04:37:56;;;;;;;19.92;7.22;;;;;;;;;;4997681;28;20466;-60
2024/01/26 04:40:22;;;;;;;19.87;7.47;;;;;;;;;;4996452;28;20405;-61
2024/01/26 04:42:47;;;;;;;22.55;8.15;;;;;;;;;;5001830;28;20293;-61
2024/01/26 04:45:12;;;;;;;21.45;7.90;;;;;;;;;;4994487;28;20022;-61
2024/01/26 04:47:37;;;;;;;20.60;7.50;;;;;;;;;;5002131;28;20026;-60
2024/01/26 04:50:03;;;;;;;23.10;8.33;;;;;;;;;;4992722;28;20011;-60
2024/01/26 04:52:28;;;;;;;19.63;7.97;;;;;;;;;;4995731;28;20297;-60
2024/01/26 04:54:53;;;;;;;20.05;7.30;;;;;;;;;;5011273;28;20200;-60
2024/01/26 04:57:19;;;;;;;20.23;7.80;;;;;;;;;;5004583;28;20026;-60
2024/01/26 04:59:44;;;;;;;19.97;7.67;;;;;;;;;;5006066;28;20029;-59
2024/01/26 05:02:09;;;;;;;20.60;7.93;;;;;;;;;;5008804;28;20030;-60
2024/01/26 05:04:34;;;;;;;22.10;8.40;;;;;;;;;;5004344;28;20061;-60
2024/01/26 05:06:59;;;;;;;21.38;8.10;;;;;;;;;;4992085;28;20030;-61
2024/01/26 05:09:25;;;;;;;21.87;7.80;;;;;;;;;;4999819;28;20131;-60
2024/01/26 05:11:51;;;;;;;22.30;8.07;;;;;;;;;;5011233;28;20610;-61
2024/01/26 05:14:17;;;;;;;20.80;8.38;;;;;;;;;;5002362;28;20485;-61
2024/01/26 05:16:42;;;;;;;20.70;8.63;;;;;;;;;;4993943;28;20045;-61
2024/01/26 05:19:07;;;;;;;20.17;7.70;;;;;;;;;;4996036;28;20281;-60
2024/01/26 05:21:32;;;;;;;17.77;6.82;;;;;;;;;;4999447;28;20037;-61
2024/01/26 05:23:57;;;;;;;19.80;7.43;;;;;;;;;;4995657;28;20019;-61
2024/01/26 05:26:23;;;;;;;20.17;7.53;;;;;;;;;;5000362;28;20034;-60
2024/01/26 05:28:48;;;;;;;21.87;7.87;;;;;;;;;;4998135;28;20093;-61
2024/01/26 05:31:13;;;;;;;21.07;8.00;;;;;;;;;;5003969;28;20751;-61
2024/01/26 05:33:38;;;;;;;20.98;8.65;;;;;;;;;;4992374;28;20027;-62
2024/01/26 05:36:04;;;;;;;21.17;7.85;;;;;;;;;;4999313;28;20123;-62
2024/01/26 05:38:29;;;;;;;20.60;7.78;;;;;;;;;;5007728;28;20142;-61
2024/01/26 05:40:54;;;;;;;21.37;6.80;;;;;;;;;;5007258;28;20022;-61
2024/01/26 05:43:19;;;;;;;20.60;7.57;;;;;;;;;;5000568;28;20037;-60
2024/01/26 05:45:44;;;;;;;21.60;7.67;;;;;;;;;;5007103;28;20018;-60
2024/01/26 05:48:10;;;;;;;21.20;8.03;;;;;;;;;;5001287;28;20360;-59
2024/01/26 05:50:35;;;;;;;19.93;7.17;;;;;;;;;;4990977;28;20685;-59
2024/01/26 05:53:02;;;;;;;20.95;7.68;;;;;;;;;;5006672;28;20484;-61
2024/01/26 05:55:27;;;;;;;21.60;7.30;;;;;;;;;;4991009;28;20541;-60
2024/01/26 05:57:52;;;;;;;21.50;7.87;;;;;;;;;;4997701;28;20452;-61
2024/01/26 06:00:17;;;;;;;20.70;7.43;;;;;;;;;;5008039;28;20108;-61
2024/01/26 06:02:43;;;;;;;20.65;7.97;;;;;;;;;;5004041;28;20084;-61
2024/01/26 06:05:08;;;;;;;19.70;6.77;;;;;;;;;;4999441;28;20117;-61
2024/01/26 06:07:33;;;;;;;23.13;8.20;;;;;;;;;;4991793;28;20754;-62
2024/01/26 06:09:58;;;;;;;20.33;7.33;;;;;;;;;;5001355;28;20712;-62
2024/01/26 06:12:23;;;;;;;20.67;8.13;;;;;;;;;;4990221;28;20025;-62
2024/01/26 06:14:49;;;;;;;21.10;8.30;;;;;;;;;;4998337;28;20399;-61
2024/01/26 06:17:14;;;;;;;21.37;7.97;;;;;;;;;;4990910;28;20061;-62
2024/01/26 06:19:39;;;;;;;21.33;8.70;;;;;;;;;;4995113;28;20022;-62
2024/01/26 06:22:04;;;;;;;19.67;7.90;;;;;;;;;;4995851;28;20394;-60
2024/01/26 06:24:30;;;;;;;21.20;8.70;;;;;;;;;;4993812;28;20028;-59
2024/01/26 06:26:55;;;;;;;21.23;8.93;;;;;;;;;;4998754;28;20034;-60
2024/01/26 06:29:20;;;;;;;20.42;8.52;;;;;;;;;;4989450;28;20080;-62
2024/01/26 06:31:45;;;;;;;20.97;8.17;;;;;;;;;;5001573;28;20061;-61
2024/01/26 06:34:10;;;;;;;21.17;8.30;;;;;;;;;;4990214;28;20280;-61
2024/01/26 06:36:36;;;;;;;19.63;7.23;;;;;;;;;;4998199;28;20074;-62
2024/01/26 06:39:01;;;;;;;20.50;7.93;;;;;;;;;;4993374;28;20425;-61
2024/01/26 06:41:27;;;;;;;22.42;8.07;;;;;;;;;;4993129;28;20314;-61
2024/01/26 06:43:52;;;;;;;22.58;9.10;;;;;;;;;;5008917;28;20473;-61
2024/01/26 06:46:22;;;;;;;21.07;7.93;;;;;;;;;;5004893;28;20030;-62
2024/01/26 06:48:48;;;;;;;20.48;7.57;;;;;;;;;;4998375;28;20116;-62
2024/01/26 06:51:13;;;;;;;23.73;8.43;;;;;;;;;;4989830;28;20474;-61
2024/01/26 06:53:38;;;;;;;20.37;8.00;;;;;;;;;;4995539;28;20060;-61
2024/01/26 06:56:04;;;;;;;22.00;8.47;;;;;;;;;;5008965;28;20265;-61
2024/01/26 06:58:29;;;;;;;21.75;9.27;;;;;;;;;;4997913;28;20277;-61
2024/01/26 07:00:54;;;;;;;19.40;7.73;;;;;;;;;;5006375;28;20397;-60
2024/01/26 07:03:19;;;;;;;20.93;7.93;;;;;;;;;;5001458;28;20034;-61
2024/01/26 07:05:45;;;;;;;21.80;8.40;;;;;;;;;;4997765;28;20363;-61
2024/01/26 07:08:10;;;;;;;21.63;7.80;;;;;;;;;;4990006;28;20022;-61
2024/01/26 07:10:35;;;;;;;21.87;8.53;;;;;;;;;;4998863;28;20109;-60
2024/01/26 07:13:00;;;;;;;21.40;8.30;;;;;;;;;;4988910;28;20265;-62
2024/01/26 07:15:25;;;;;;;20.30;7.93;;;;;;;;;;4999755;28;20080;-61
2024/01/26 07:17:50;;;;;;;20.30;7.60;;;;;;;;;;4989687;28;20058;-61
2024/01/26 07:20:16;;;;;;;19.73;7.37;;;;;;;;;;4994492;28;20075;-61
2024/01/26 07:22:41;;;;;;;20.95;8.57;;;;;;;;;;4994713;28;20490;-62
2024/01/26 07:25:11;;;;;;;21.48;7.70;;;;;;;;;;4992113;28;20490;-61
2024/01/26 07:27:36;;;;;;;20.20;7.03;;;;;;;;;;4998912;28;20370;-60
2024/01/26 07:30:05;;;;;;;19.43;7.50;;;;;;;;;;4994968;28;20018;-60
2024/01/26 07:32:31;;;;;;;21.60;7.68;;;;;;;;;;5004788;28;20331;-60
2024/01/26 07:34:56;;;;;;;19.42;6.82;;;;;;;;;;4993815;28;20019;-61
2024/01/26 07:37:21;;;;;;;20.53;7.37;;;;;;;;;;5005110;28;20060;-61
2024/01/26 07:39:46;;;;;;;19.93;7.83;;;;;;;;;;4995269;28;20328;-61
2024/01/26 07:42:12;;;;;;;19.83;7.05;;;;;;;;;;4999468;28;20049;-60
2024/01/26 07:44:37;;;;;;;20.02;7.88;;;;;;;;;;5000226;28;20088;-60
2024/01/26 07:47:02;;;;;;;19.30;7.57;;;;;;;;;;4996452;28;20105;-60
2024/01/26 07:49:27;;;;;;;19.67;8.10;;;;;;;;;;5002628;28;20133;-59
2024/01/26 07:51:52;;;;;;;19.60;6.93;;;;;;;;;;4994056;28;20069;-61
2024/01/26 07:54:17;;;;;;;21.17;7.37;;;;;;;;;;5005351;28;20442;-61
2024/01/26 07:56:43;;;;;;;18.87;7.10;;;;;;;;;;4994080;28;20105;-58
2024/01/26 07:59:08;;;;;;;20.67;7.90;;;;;;;;;;5000568;28;20454;-60
2024/01/26 08:01:34;;;;;;;20.33;7.80;;;;;;;;;;5011052;28;20268;-60
2024/01/26 08:03:59;;;;;;;19.55;7.15;;;;;;;;;;5004793;28;20168;-60
2024/01/26 08:06:24;;;;;;;20.02;7.00;;;;;;;;;;5000966;28;20041;-59
2024/01/26 08:08:50;;;;;;;21.13;7.47;;;;;;;;;;4996892;28;20112;-59
2024/01/26 08:11:17;;;;;;;20.40;7.50;;;;;;;;;;5002208;28;20038;-60
2024/01/26 08:13:42;;;;;;;19.75;7.00;;;;;;;;;;4993786;28;20041;-60
2024/01/26 08:16:07;;;;;;;18.80;6.90;;;;;;;;;;5005201;28;20362;-60
2024/01/26 08:18:33;;;;;;;19.77;7.20;;;;;;;;;;4993528;28;20100;-60
2024/01/26 08:20:58;;;;;;;19.48;6.95;;;;;;;;;;4999042;28;20358;-61
2024/01/26 08:23:23;;;;;;;19.07;7.03;;;;;;;;;;5008254;28;20131;-61
2024/01/26 08:25:48;;;;;;;19.70;7.07;;;;;;;;;;5005495;28;20394;-61
2024/01/26 08:28:13;;;;;;;19.33;6.73;;;;;;;;;;5001742;28;20157;-61
2024/01/26 08:30:38;;;;;;;19.37;7.17;;;;;;;;;;4995093;28;20053;-61
2024/01/26 08:33:04;;;;;;;19.53;6.67;;;;;;;;;;5004116;28;20299;-60
2024/01/26 08:35:29;;;;;;;18.13;6.77;;;;;;;;;;5012343;28;20026;-61
2024/01/26 08:37:54;;;;;;;17.77;6.30;;;;;;;;;;5005227;28;20308;-59
2024/01/26 08:40:20;;;;;;;19.07;6.60;;;;;;;;;;4992280;28;20443;-58
2024/01/26 08:42:45;;;;;;;17.67;6.50;;;;;;;;;;4999704;28;20061;-60
2024/01/26 08:45:10;;;;;;;19.48;6.68;;;;;;;;;;4998622;28;20046;-65
2024/01/26 08:47:36;;;;;;;18.23;6.83;;;;;;;;;;4996805;28;20018;-62
2024/01/26 08:50:01;;;;;;;18.23;6.78;;;;;;;;;;5001449;28;20270;-59
2024/01/26 08:52:27;;;;;;;18.75;6.88;;;;;;;;;;4994288;28;20481;-59
2024/01/26 08:54:52;;;;;;;18.88;6.80;;;;;;;;;;5003836;28;20073;-58
2024/01/26 08:57:18;;;;;;;18.77;7.05;;;;;;;;;;4993017;28;20014;-58
2024/01/26 08:59:44;;;;;;;18.77;6.93;;;;;;;;;;4995631;28;20092;-60
2024/01/26 09:02:09;;;;;;;20.10;7.18;;;;;;;;;;5008891;28;20029;-59
2024/01/26 09:04:34;;;;;;;18.10;6.70;;;;;;;;;;5003617;28;20482;-59
2024/01/26 09:06:59;;;;;;;18.65;6.88;;;;;;;;;;5003846;28;20064;-60
2024/01/26 09:09:24;;;;;;;18.77;6.78;;;;;;;;;;5004978;28;20022;-59
2024/01/26 09:11:51;;;;;;;18.60;6.38;;;;;;;;;;5003409;28;20044;-59
2024/01/26 09:14:17;;;;;;;18.45;6.63;;;;;;;;;;5009661;28;20026;-61
2024/01/26 09:16:42;;;;;;;19.30;6.22;;;;;;;;;;5005014;28;20017;-60
2024/01/26 09:19:08;;;;;;;18.60;6.20;;;;;;;;;;5010188;28;20065;-60
2024/01/26 09:21:33;;;;;;;15.43;5.13;;;;;;;;;;4999642;28;20109;-61
2024/01/26 09:23:59;;;;;;;17.97;5.40;;;;;;;;;;5007419;28;20444;-62
2024/01/26 09:26:24;;;;;;;15.27;4.30;;;;;;;;;;5004172;28;20787;-60
2024/01/26 09:28:49;;;;;;;16.02;3.80;;;;;;;;;;5003046;28;20029;-61
2024/01/26 09:31:14;;;;;;;11.07;3.10;;;;;;;;;;5000863;28;20616;-61
2024/01/26 09:33:39;;;;;;;10.13;3.37;;;;;;;;;;4998939;28;20022;-61
2024/01/26 09:36:05;;;;;;;12.00;2.97;;;;;;;;;;5009667;28;20303;-61
2024/01/26 09:38:30;;;;;;;14.48;2.55;;;;;;;;;;5002081;28;20517;-61
2024/01/26 09:40:55;;;;;;;14.47;2.67;;;;;;;;;;4990732;28;20037;-61
2024/01/26 09:43:20;;;;;;;12.17;2.70;;;;;;;;;;4997187;28;20089;-61
2024/01/26 09:45:49;;;;;;;17.37;2.70;;;;;;;;;;5005950;28;20466;-61
2024/01/26 09:48:15;;;;;;;13.23;2.70;;;;;;;;;;5002847;28;20281;-61
2024/01/26 09:50:40;;;;;;;11.23;2.40;;;;;;;;;;5000761;28;20451;-62
2024/01/26 09:53:06;;;;;;;12.68;2.40;;;;;;;;;;4999642;28;20060;-62
2024/01/26 09:55:32;;;;;;;10.60;1.80;;;;;;;;;;4994081;28;20029;-61
2024/01/26 09:57:57;;;;;;;11.85;2.20;;;;;;;;;;4994929;28;20066;-62
2024/01/26 10:00:23;;;;;;;11.10;2.30;;;;;;;;;;5002224;28;20068;-61
2024/01/26 10:02:49;;;;;;;10.13;2.03;;;;;;;;;;4997709;28;20434;-60
2024/01/26 10:05:16;;;;;;;12.95;2.25;;;;;;;;;;5009704;28;20018;-61
2024/01/26 10:07:41;;;;;;;9.70;1.92;;;;;;;;;;5001770;28;20029;-61
2024/01/26 10:10:07;;;;;;;15.10;2.47;;;;;;;;;;4995359;28;20435;-61
2024/01/26 10:12:34;;;;;;;15.10;2.25;;;;;;;;;;4993408;28;20520;-61
2024/01/26 10:15:07;;;;;;;14.95;2.40;;;;;;;;;;5001079;28;20112;-61
2024/01/26 10:17:33;;;;;;;10.85;2.30;;;;;;;;;;5006165;28;20045;-61
2024/01/26 10:20:14;;;;;;;10.68;2.00;;;;;;;;;;5005104;28;20025;-60
2024/01/26 10:22:40;;;;;;;15.02;2.42;;;;;;;;;;5007584;28;20025;-61
2024/01/26 10:25:05;;;;;;;15.98;2.40;;;;;;;;;;5001338;28;20037;-61
2024/01/26 10:27:32;;;;;;;13.00;2.20;;;;;;;;;;4989362;28;20030;-61
2024/01/26 10:29:57;;;;;;;16.42;2.60;;;;;;;;;;4997996;28;20061;-62
2024/01/26 10:32:26;;;;;;;14.55;2.55;;;;;;;;;;4992416;28;20076;-61
2024/01/26 10:34:52;;;;;;;12.75;2.50;;;;;;;;;;4995786;28;20030;-61
2024/01/26 10:37:19;;;;;;;18.00;3.15;;;;;;;;;;5000690;28;20044;-62
2024/01/26 10:39:46;;;;;;;15.02;2.95;;;;;;;;;;5000147;28;20057;-60
2024/01/26 10:42:11;;;;;;;15.35;2.72;;;;;;;;;;4998076;28;20418;-61
2024/01/26 10:44:38;;;;;;;21.75;3.25;;;;;;;;;;4988297;28;20026;-60
2024/01/26 10:47:04;;;;;;;11.57;2.35;;;;;;;;;;4995101;28;20058;-61
2024/01/26 10:49:29;;;;;;;12.88;2.25;;;;;;;;;;5007220;28;20029;-61
2024/01/26 10:51:56;;;;;;;12.43;2.45;;;;;;;;;;4998831;28;20050;-61
2024/01/26 10:54:23;;;;;;;15.70;2.75;;;;;;;;;;4990279;28;20033;-61
2024/01/26 10:56:48;;;;;;;15.63;2.85;;;;;;;;;;4990933;28;20109;-61
2024/01/26 10:59:16;;;;;;;13.40;2.60;;;;;;;;;;4994054;28;20075;-61
2024/01/26 11:01:41;;;;;;;14.55;2.33;;;;;;;;;;4990905;28;20349;-60
2024/01/26 11:04:07;;;;;;;10.50;2.00;;;;;;;;;;4996047;28;20490;-62
2024/01/26 11:06:34;;;;;;;12.90;2.22;;;;;;;;;;4999192;28;20037;-60
2024/01/26 11:09:00;;;;;;;12.75;2.58;;;;;;;;;;4999737;28;20078;-61
2024/01/26 11:11:30;;;;;;;16.27;2.08;;;;;;;;;;4995711;28;20022;-62
2024/01/26 11:13:58;;;;;;;14.35;2.65;;;;;;;;;;5003314;28;20064;-62
2024/01/26 11:16:26;;;;;;;11.32;1.98;;;;;;;;;;5000619;28;20030;-62
2024/01/26 11:19:01;;;;;;;14.27;2.25;;;;;;;;;;5008402;28;20978;-62
2024/01/26 11:21:39;;;;;;;14.13;2.22;;;;;;;;;;5001922;28;20029;-60
2024/01/26 11:24:31;;;;;;;14.02;2.30;;;;;;;;;;5000472;28;20080;-61
2024/01/26 11:26:56;;;;;;;12.85;2.22;;;;;;;;;;4998917;28;20045;-61
2024/01/26 11:29:22;;;;;;;12.13;2.20;;;;;;;;;;4997191;28;20026;-60
2024/01/26 11:31:47;;;;;;;10.03;2.03;;;;;;;;;;4989408;28;20375;-60
2024/01/26 11:34:18;;;;;;;13.00;1.90;;;;;;;;;;4999985;28;20274;-61
2024/01/26 11:36:44;;;;;;;17.52;3.00;;;;;;;;;;4994403;28;20359;-61
2024/01/26 11:39:13;;;;;;;11.43;2.00;;;;;;;;;;4997058;28;20058;-61
2024/01/26 11:41:41;;;;;;;13.02;2.05;;;;;;;;;;4988851;28;20411;-61
2024/01/26 11:44:08;;;;;;;13.48;2.22;;;;;;;;;;4987497;28;20114;-61
2024/01/26 11:46:34;;;;;;;16.92;2.70;;;;;;;;;;4986772;28;20055;-61
2024/01/26 11:48:59;;;;;;;12.90;2.30;;;;;;;;;;4986600;28;20120;-62
2024/01/26 11:51:24;;;;;;;17.47;3.07;;;;;;;;;;4992023;28;20022;-62
2024/01/26 11:53:49;;;;;;;14.57;2.33;;;;;;;;;;4994688;28;20108;-62
2024/01/26 11:56:15;;;;;;;11.70;1.85;;;;;;;;;;5003152;28;20331;-62
2024/01/26 11:58:41;;;;;;;18.17;2.53;;;;;;;;;;4995949;28;20026;-62
2024/01/26 12:01:06;;;;;;;13.40;2.40;;;;;;;;;;4988551;28;20026;-61
2024/01/26 12:03:31;;;;;;;12.38;2.38;;;;;;;;;;5000084;28;20041;-62
2024/01/26 12:05:57;;;;;;;12.17;2.20;;;;;;;;;;4988979;28;20022;-62
2024/01/26 12:08:24;;;;;;;18.02;3.10;;;;;;;;;;4993550;28;20603;-60
2024/01/26 12:10:50;;;;;;;15.30;2.53;;;;;;;;;;4999878;28;20466;-60
2024/01/26 12:13:15;;;;;;;14.00;2.33;;;;;;;;;;5002532;28;20403;-62
2024/01/26 12:15:41;;;;;;;12.73;2.17;;;;;;;;;;4999467;28;20379;-62
2024/01/26 12:18:10;;;;;;;10.98;2.25;;;;;;;;;;4998614;28;20041;-62
2024/01/26 12:20:35;;;;;;;13.82;2.40;;;;;;;;;;5002655;28;20104;-62
2024/01/26 12:23:00;;;;;;;12.27;2.42;;;;;;;;;;4992111;28;20027;-61
2024/01/26 12:25:27;;;;;;;13.02;2.38;;;;;;;;;;5002758;28;20497;-62
2024/01/26 12:27:53;;;;;;;14.88;2.40;;;;;;;;;;4993153;28;20323;-61
2024/01/26 12:30:18;;;;;;;12.90;2.30;;;;;;;;;;4998517;28;20026;-61
2024/01/26 12:32:43;;;;;;;20.00;2.88;;;;;;;;;;5008794;28;20445;-61
2024/01/26 12:35:08;;;;;;;15.03;2.47;;;;;;;;;;5003222;28;20050;-61
2024/01/26 12:37:33;;;;;;;14.32;2.92;;;;;;;;;;4996480;28;20460;-60
2024/01/26 12:39:59;;;;;;;14.50;2.50;;;;;;;;;;5000219;28;20416;-60
2024/01/26 12:42:24;;;;;;;13.77;2.38;;;;;;;;;;5003518;28;20777;-62
2024/01/26 12:44:50;;;;;;;15.97;2.30;;;;;;;;;;5001591;28;20174;-60
2024/01/26 12:47:15;;;;;;;14.75;2.42;;;;;;;;;;5000427;28;20300;-61
2024/01/26 12:49:41;;;;;;;14.63;2.50;;;;;;;;;;5010861;28;20049;-62
2024/01/26 12:52:06;;;;;;;15.60;2.60;;;;;;;;;;5002939;28;20409;-61
2024/01/26 12:54:31;;;;;;;17.70;2.72;;;;;;;;;;5007378;28;20056;-61
2024/01/26 12:56:56;;;;;;;20.03;3.50;;;;;;;;;;5002787;28;20022;-62
2024/01/26 12:59:22;;;;;;;13.85;2.08;;;;;;;;;;4996191;28;20316;-61
2024/01/26 13:01:47;;;;;;;13.88;2.65;;;;;;;;;;5000249;28;20486;-61
2024/01/26 13:04:12;;;;;;;17.93;2.60;;;;;;;;;;4998492;28;20030;-62
2024/01/26 13:06:37;;;;;;;15.80;2.63;;;;;;;;;;5008225;28;20277;-64
2024/01/26 13:09:06;;;;;;;15.13;2.50;;;;;;;;;;5000463;28;20352;-62
2024/01/26 13:11:31;;;;;;;15.70;2.65;;;;;;;;;;4990629;28;20101;-62
2024/01/26 13:13:56;;;;;;;15.40;2.45;;;;;;;;;;5001550;28;20108;-61
2024/01/26 13:16:22;;;;;;;14.87;2.30;;;;;;;;;;4992251;28;20022;-62
2024/01/26 13:18:47;;;;;;;19.33;3.00;;;;;;;;;;4990670;28;20022;-61
2024/01/26 13:21:12;;;;;;;13.50;2.73;;;;;;;;;;4989811;28;20030;-61
2024/01/26 13:23:38;;;;;;;15.60;2.50;;;;;;;;;;4990694;28;20438;-61
2024/01/26 13:26:03;;;;;;;16.92;2.50;;;;;;;;;;4990511;28;20022;-61
2024/01/26 13:28:28;;;;;;;16.40;2.75;;;;;;;;;;4991060;28;20065;-62
2024/01/26 13:30:54;;;;;;;16.95;2.72;;;;;;;;;;4988292;28;20124;-62
2024/01/26 13:33:21;;;;;;;15.57;2.55;;;;;;;;;;4987011;28;20040;-62
2024/01/26 13:35:46;;;;;;;12.82;2.38;;;;;;;;;;4987025;28;20486;-61
2024/01/26 13:38:11;;;;;;;19.38;3.08;;;;;;;;;;4987133;28;20036;-61
2024/01/26 13:40:37;;;;;;;14.43;2.95;;;;;;;;;;4987339;28;20026;-61
2024/01/26 13:43:03;;;;;;;15.85;2.63;;;;;;;;;;4986950;28;20023;-61
2024/01/26 13:45:28;;;;;;;19.30;2.72;;;;;;;;;;4988498;28;20026;-61
2024/01/26 13:47:53;;;;;;;19.53;2.93;;;;;;;;;;4990720;28;20022;-61
2024/01/26 13:50:18;;;;;;;17.70;3.20;;;;;;;;;;4990688;28;20690;-62
2024/01/26 13:52:44;;;;;;;13.37;2.13;;;;;;;;;;4990640;28;20058;-62
2024/01/26 13:55:09;;;;;;;13.77;2.38;;;;;;;;;;4990630;28;20089;-61
2024/01/26 13:57:34;;;;;;;17.53;3.50;;;;;;;;;;4988660;28;20093;-62
2024/01/26 14:00:00;;;;;;;18.17;2.67;;;;;;;;;;4990119;28;20350;-61
2024/01/26 14:02:25;;;;;;;12.73;2.20;;;;;;;;;;4990135;28;20030;-62
2024/01/26 14:04:50;;;;;;;17.40;3.10;;;;;;;;;;4990054;28;20285;-62
2024/01/26 14:07:16;;;;;;;14.27;2.70;;;;;;;;;;4990481;28;20023;-62
2024/01/26 14:09:41;;;;;;;19.25;2.90;;;;;;;;;;4990353;28;20034;-61
2024/01/26 14:12:06;;;;;;;15.95;2.60;;;;;;;;;;4989889;28;20034;-62
2024/01/26 14:14:33;;;;;;;20.25;3.63;;;;;;;;;;4990166;28;20548;-60
2024/01/26 14:16:58;;;;;;;18.17;2.50;;;;;;;;;;4990106;28;20026;-62
2024/01/26 14:19:23;;;;;;;16.17;2.93;;;;;;;;;;4989915;28;20029;-61